Time;durP1;ratioP1;P1;durP2;ratioP2;P2;SDS_P1;SDS_P2;PMS_P1;PMS_P2;Temp;Humidity;BMP_temperature;BMP_pressure;BME280_temperature;BME280_humidity;BME280_pressure;Samples;Min_cycle;Max_cycle;Signal;HPM_P1;HPM_P2
2021/04/17 04:12:54;;;;;;;1.20;1.20;;;4.80;99.90;;;;;;4885130;29;20230;-79
2021/04/17 04:15:21;;;;;;;1.40;1.40;;;4.80;99.90;;;;;;4885415;29;20204;-78
2021/04/17 04:17:48;;;;;;;1.20;1.20;;;4.80;99.90;;;;;;4881968;29;20204;-78
2021/04/17 04:20:15;;;;;;;1.20;1.20;;;4.70;99.90;;;;;;4881907;29;20282;-77
2021/04/17 04:22:42;;;;;;;1.23;1.23;;;4.80;99.90;;;;;;4882379;29;20235;-79
2021/04/17 04:25:10;;;;;;;1.40;1.40;;;4.80;99.90;;;;;;4881920;29;20216;-77
2021/04/17 04:27:38;;;;;;;1.23;1.23;;;4.60;99.90;;;;;;4881258;29;20236;-78
2021/04/17 04:30:08;;;;;;;1.30;1.30;;;4.60;99.90;;;;;;4880887;29;20208;-78
2021/04/17 04:32:35;;;;;;;1.20;1.20;;;4.60;99.90;;;;;;4881355;29;20232;-78
2021/04/17 04:35:03;;;;;;;1.30;1.30;;;4.60;99.90;;;;;;4881218;29;20656;-79
2021/04/17 04:37:30;;;;;;;1.40;1.40;;;4.50;99.90;;;;;;4881545;29;20746;-79
2021/04/17 04:39:57;;;;;;;1.20;1.20;;;4.50;99.90;;;;;;4881195;29;20212;-77
2021/04/17 04:42:24;;;;;;;1.20;1.20;;;4.60;99.90;;;;;;4881214;29;20228;-77
2021/04/17 04:44:51;;;;;;;1.30;1.30;;;4.70;99.90;;;;;;4876391;29;20259;-77
2021/04/17 04:47:19;;;;;;;1.30;1.30;;;4.70;99.90;;;;;;4879850;29;20260;-77
2021/04/17 04:49:46;;;;;;;1.30;1.30;;;4.60;99.90;;;;;;4879845;29;20214;-78
2021/04/17 04:52:13;;;;;;;1.30;1.30;;;4.70;99.90;;;;;;4880678;29;20239;-78
2021/04/17 04:54:40;;;;;;;1.30;1.30;;;4.50;99.90;;;;;;4878299;29;20256;-76
2021/04/17 04:57:07;;;;;;;1.23;1.23;;;4.70;99.90;;;;;;4884229;29;20234;-78
2021/04/17 04:59:34;;;;;;;1.10;1.10;;;4.70;99.90;;;;;;4884035;29;20673;-78
2021/04/17 05:02:02;;;;;;;1.27;1.27;;;4.80;99.90;;;;;;4882883;29;20239;-78
2021/04/17 05:04:30;;;;;;;1.40;1.40;;;4.70;99.90;;;;;;4883647;29;20208;-78
2021/04/17 05:06:57;;;;;;;1.10;1.10;;;4.60;99.90;;;;;;4882632;29;20243;-78
2021/04/17 05:09:24;;;;;;;1.40;1.40;;;4.80;99.90;;;;;;4882037;29;20256;-78
2021/04/17 05:11:50;;;;;;;1.17;1.17;;;4.80;99.90;;;;;;4882313;29;20235;-78
2021/04/17 05:14:17;;;;;;;1.20;1.20;;;5.00;99.90;;;;;;4882736;29;20276;-79
2021/04/17 05:16:44;;;;;;;1.23;1.23;;;5.00;99.90;;;;;;4882339;29;20204;-78
2021/04/17 05:19:11;;;;;;;1.20;1.20;;;5.10;99.90;;;;;;4882475;29;20295;-77
2021/04/17 05:21:39;;;;;;;1.27;1.27;;;5.30;99.90;;;;;;4882223;29;20224;-78
2021/04/17 05:24:06;;;;;;;1.30;1.30;;;5.30;99.90;;;;;;4881030;29;20271;-76
2021/04/17 05:26:33;;;;;;;1.30;1.30;;;5.30;99.90;;;;;;4880336;29;20231;-75
2021/04/17 05:29:00;;;;;;;1.30;1.30;;;5.20;99.90;;;;;;4880473;29;20268;-76
2021/04/17 05:31:28;;;;;;;1.20;1.20;;;5.30;99.90;;;;;;4880306;29;20292;-77
2021/04/17 05:33:55;;;;;;;1.30;1.30;;;5.30;99.90;;;;;;4880146;29;20216;-76
2021/04/17 05:36:22;;;;;;;1.10;1.10;;;5.20;99.90;;;;;;4880414;29;20212;-76
2021/04/17 05:38:52;;;;;;;1.20;1.20;;;5.30;99.90;;;;;;4880769;29;20633;-76
2021/04/17 05:41:25;;;;;;;1.30;1.30;;;5.10;99.90;;;;;;4881057;29;20299;-78
2021/04/17 05:43:52;;;;;;;1.20;1.20;;;5.00;99.90;;;;;;4880617;29;20280;-78
2021/04/17 05:46:19;;;;;;;1.10;1.10;;;4.90;99.90;;;;;;4880046;29;20220;-77
2021/04/17 05:48:46;;;;;;;1.10;1.10;;;5.00;99.90;;;;;;4880829;29;20212;-77
2021/04/17 05:51:13;;;;;;;1.20;1.20;;;5.10;99.90;;;;;;4880854;29;20228;-78
2021/04/17 05:53:40;;;;;;;1.20;1.20;;;5.20;99.90;;;;;;4881223;29;20264;-77
2021/04/17 05:56:08;;;;;;;1.20;1.20;;;5.10;99.90;;;;;;4879991;29;20630;-77
2021/04/17 05:58:35;;;;;;;1.23;1.23;;;5.00;99.90;;;;;;4880382;29;20381;-77
2021/04/17 06:01:03;;;;;;;1.20;1.20;;;4.90;99.90;;;;;;4879316;29;20609;-76
2021/04/17 06:03:30;;;;;;;1.30;1.30;;;4.90;99.90;;;;;;4880059;29;20218;-75
2021/04/17 06:05:57;;;;;;;1.40;1.40;;;4.80;99.90;;;;;;4879099;29;20654;-76
2021/04/17 06:08:24;;;;;;;1.13;1.13;;;4.80;99.90;;;;;;4878588;29;20204;-77
2021/04/17 06:10:51;;;;;;;1.20;1.20;;;4.90;99.90;;;;;;4879309;29;20739;-76
2021/04/17 06:13:18;;;;;;;1.30;1.30;;;5.00;99.90;;;;;;4879133;29;20692;-77
2021/04/17 06:15:45;;;;;;;1.20;1.20;;;5.30;99.90;;;;;;4878352;29;20246;-75
2021/04/17 06:18:12;;;;;;;1.20;1.20;;;5.20;99.90;;;;;;4878806;29;20211;-76
2021/04/17 06:20:40;;;;;;;1.20;1.20;;;5.30;99.90;;;;;;4878736;29;20236;-76
2021/04/17 06:23:06;;;;;;;1.20;1.20;;;5.40;99.90;;;;;;4878351;29;20208;-77
2021/04/17 06:25:33;;;;;;;1.07;1.07;;;5.50;99.90;;;;;;4878388;29;20231;-76
2021/04/17 06:28:00;;;;;;;1.20;1.20;;;5.30;99.90;;;;;;4878729;29;20214;-77
2021/04/17 06:30:28;;;;;;;1.10;1.10;;;5.50;99.90;;;;;;4878613;29;20216;-76
2021/04/17 06:32:58;;;;;;;1.20;1.20;;;5.50;99.90;;;;;;4878636;29;20227;-77
2021/04/17 06:35:26;;;;;;;1.30;1.30;;;5.30;99.90;;;;;;4878401;29;20208;-76
2021/04/17 06:37:53;;;;;;;1.20;1.20;;;5.40;99.90;;;;;;4880236;29;20682;-76
2021/04/17 06:40:24;;;;;;;1.10;1.10;;;5.10;99.90;;;;;;4884187;29;20208;-77
2021/04/17 06:42:53;;;;;;;1.10;1.10;;;5.20;99.90;;;;;;4885960;29;20565;-77
2021/04/17 06:45:22;;;;;;;1.20;1.20;;;5.40;99.90;;;;;;4886202;29;20256;-77
2021/04/17 06:47:50;;;;;;;1.20;1.20;;;5.50;99.90;;;;;;4887723;29;20208;-77
2021/04/17 06:50:18;;;;;;;1.20;1.20;;;5.90;99.90;;;;;;4878595;29;20219;-77
2021/04/17 06:52:47;;;;;;;1.10;1.10;;;5.90;99.90;;;;;;4877966;29;20216;-77
2021/04/17 06:55:14;;;;;;;1.20;1.20;;;6.00;99.90;;;;;;4877726;29;20242;-78
2021/04/17 06:57:41;;;;;;;1.10;1.10;;;5.90;99.90;;;;;;4878257;29;20200;-77
2021/04/17 07:00:12;;;;;;;1.07;1.07;;;5.90;99.90;;;;;;4879128;29;20250;-77
2021/04/17 07:02:41;;;;;;;1.10;1.10;;;5.90;99.90;;;;;;4878289;29;20208;-77
2021/04/17 07:05:10;;;;;;;1.10;1.10;;;6.00;99.90;;;;;;4877921;29;20223;-77
2021/04/17 07:07:37;;;;;;;1.13;1.13;;;5.90;99.90;;;;;;4877902;29;20300;-76
2021/04/17 07:10:04;;;;;;;1.10;1.10;;;6.10;99.90;;;;;;4878125;29;20208;-78
2021/04/17 07:12:31;;;;;;;1.00;1.00;;;6.20;99.90;;;;;;4878681;29;20243;-78
2021/04/17 07:15:04;;;;;;;1.23;1.23;;;6.20;99.90;;;;;;4877672;29;20694;-78
2021/04/17 07:17:33;;;;;;;1.00;1.00;;;6.30;99.90;;;;;;4878100;29;20204;-78
2021/04/17 07:20:02;;;;;;;1.00;1.00;;;6.10;99.90;;;;;;4877758;29;20583;-76
2021/04/17 07:22:32;;;;;;;1.23;1.23;;;6.10;99.90;;;;;;4870301;29;20231;-80
2021/04/17 07:25:16;;;;;;;1.00;1.00;;;6.00;99.90;;;;;;4873355;29;20212;-79
2021/04/17 07:27:44;;;;;;;1.10;1.10;;;6.20;99.90;;;;;;4874858;29;20303;-77
2021/04/17 07:30:28;;;;;;;0.90;0.90;;;6.60;99.90;;;;;;4874470;29;20347;-79
2021/04/17 07:33:11;;;;;;;1.10;1.10;;;6.60;99.90;;;;;;4872725;29;20306;-77
2021/04/17 07:35:41;;;;;;;1.10;1.10;;;6.70;99.90;;;;;;4874117;29;20305;-77
2021/04/17 07:38:12;;;;;;;1.10;1.10;;;6.80;99.90;;;;;;4874021;29;20216;-77
2021/04/17 07:40:40;;;;;;;1.00;1.00;;;6.70;99.90;;;;;;4874131;29;20235;-79
2021/04/17 07:43:07;;;;;;;1.27;1.27;;;6.70;99.90;;;;;;4873738;29;20706;-78
2021/04/17 07:45:36;;;;;;;1.10;1.10;;;6.70;99.90;;;;;;4873747;29;20260;-77
2021/04/17 07:48:19;;;;;;;1.23;1.23;;;6.40;99.90;;;;;;4878316;29;20542;-78
2021/04/17 07:50:46;;;;;;;1.10;1.10;;;6.60;99.90;;;;;;4877302;29;20679;-76
2021/04/17 07:53:26;;;;;;;1.10;1.10;;;6.90;99.90;;;;;;4875038;29;20212;-78
2021/04/17 07:55:53;;;;;;;1.17;1.17;;;7.10;99.90;;;;;;4876572;29;20207;-77
2021/04/17 07:58:20;;;;;;;1.00;1.00;;;7.40;99.90;;;;;;4874960;29;20212;-78
2021/04/17 08:00:48;;;;;;;1.20;1.20;;;7.40;99.90;;;;;;4873539;29;20280;-78
2021/04/17 08:03:17;;;;;;;1.10;1.10;;;7.20;99.90;;;;;;4874438;29;20272;-76
2021/04/17 08:05:45;;;;;;;1.10;1.10;;;7.10;99.90;;;;;;4873283;29;20290;-78
2021/04/17 08:08:12;;;;;;;1.17;1.17;;;7.00;99.90;;;;;;4875416;29;20575;-78
2021/04/17 08:10:40;;;;;;;1.00;1.00;;;7.00;99.90;;;;;;4876987;29;20240;-78
2021/04/17 08:13:08;;;;;;;1.00;1.00;;;7.20;99.90;;;;;;4877395;29;20673;-78
2021/04/17 08:15:36;;;;;;;0.90;0.90;;;7.10;99.90;;;;;;4876973;29;20216;-78
2021/04/17 08:18:05;;;;;;;1.10;1.10;;;7.20;99.90;;;;;;4877514;29;20218;-77
2021/04/17 08:20:32;;;;;;;1.20;1.20;;;7.10;99.90;;;;;;4868935;29;20227;-78
2021/04/17 08:23:00;;;;;;;1.00;1.00;;;7.20;99.90;;;;;;4863477;29;20622;-78
2021/04/17 08:25:28;;;;;;;1.10;1.10;;;7.50;99.90;;;;;;4859939;29;20205;-78
2021/04/17 08:27:55;;;;;;;1.03;1.03;;;7.40;99.90;;;;;;4875967;29;20698;-79
2021/04/17 08:30:25;;;;;;;1.17;1.17;;;7.50;99.90;;;;;;4866904;29;20682;-78
2021/04/17 08:32:53;;;;;;;1.00;1.00;;;7.40;99.90;;;;;;4874045;29;21015;-78
2021/04/17 08:35:23;;;;;;;1.10;1.10;;;7.30;99.90;;;;;;4872900;29;20214;-80
2021/04/17 08:38:08;;;;;;;1.00;1.00;;;7.40;99.90;;;;;;4876424;29;20621;-80
2021/04/17 08:40:44;;;;;;;1.00;1.00;;;7.40;99.90;;;;;;4871522;29;20216;-79
2021/04/17 08:43:32;;;;;;;1.10;1.10;;;7.20;99.90;;;;;;4872774;29;20256;-78
2021/04/17 08:46:08;;;;;;;1.00;1.00;;;7.40;99.90;;;;;;4879571;29;20284;-78
2021/04/17 08:48:48;;;;;;;1.10;1.10;;;7.70;99.90;;;;;;4875474;29;20633;-78
2021/04/17 08:51:28;;;;;;;0.90;0.90;;;8.00;99.90;;;;;;4862442;29;20228;-79
2021/04/17 08:54:13;;;;;;;1.00;1.00;;;7.80;99.90;;;;;;4866340;29;20261;-80
2021/04/17 08:56:52;;;;;;;1.07;1.07;;;7.80;99.90;;;;;;4864351;29;20204;-80
2021/04/17 08:59:22;;;;;;;1.00;1.00;;;7.90;99.90;;;;;;4865320;29;20272;-79
2021/04/17 09:01:52;;;;;;;1.10;1.10;;;7.70;99.90;;;;;;4863552;29;20294;-79
2021/04/17 09:04:22;;;;;;;1.00;1.00;;;7.60;99.90;;;;;;4864403;29;20217;-79
2021/04/17 09:06:51;;;;;;;1.20;1.20;;;7.30;99.90;;;;;;4866843;29;20340;-80
2021/04/17 09:09:30;;;;;;;1.10;1.10;;;7.50;99.90;;;;;;4864475;29;20698;-78
2021/04/17 09:12:16;;;;;;;1.00;1.00;;;7.60;99.90;;;;;;4865575;29;20258;-79
2021/04/17 09:15:00;;;;;;;1.10;1.10;;;7.70;99.90;;;;;;4865170;29;20588;-77
2021/04/17 09:17:36;;;;;;;1.10;1.10;;;7.70;99.90;;;;;;4864316;29;20205;-78
2021/04/17 09:20:05;;;;;;;1.00;1.00;;;7.50;99.90;;;;;;4865581;29;20216;-78
2021/04/17 09:22:49;;;;;;;0.90;0.90;;;7.60;99.90;;;;;;4864417;29;20232;-78
2021/04/17 09:25:37;;;;;;;1.03;1.03;;;7.70;99.90;;;;;;4861249;29;20559;-77
2021/04/17 09:28:05;;;;;;;1.00;1.00;;;7.80;99.90;;;;;;4861628;29;20224;-80
2021/04/17 09:30:33;;;;;;;0.90;0.90;;;7.80;99.90;;;;;;4863406;29;20233;-77
2021/04/17 09:33:00;;;;;;;1.17;1.17;;;7.70;99.90;;;;;;4863743;29;20208;-79
2021/04/17 09:35:31;;;;;;;1.10;1.10;;;7.90;99.90;;;;;;4864308;29;20212;-79
2021/04/17 09:38:01;;;;;;;1.10;1.10;;;7.80;99.90;;;;;;4863560;29;20212;-80
2021/04/17 09:43:08;;;;;;;0.90;0.90;;;8.10;99.90;;;;;;4876397;29;20265;-82
2021/04/17 09:45:39;;;;;;;1.00;1.00;;;8.20;99.90;;;;;;4884068;29;20216;-79
2021/04/17 09:48:09;;;;;;;0.90;0.90;;;8.30;99.90;;;;;;4884214;29;20454;-81
2021/04/17 09:50:38;;;;;;;1.10;1.10;;;8.40;99.90;;;;;;4880480;29;20209;-79
2021/04/17 09:53:13;;;;;;;0.90;0.90;;;8.10;99.90;;;;;;4860289;29;20209;-79
2021/04/17 09:55:52;;;;;;;1.00;1.00;;;7.80;99.90;;;;;;4855608;29;20624;-78
2021/04/17 09:58:24;;;;;;;1.07;1.07;;;7.90;99.90;;;;;;4850915;29;20220;-78
2021/04/17 10:00:53;;;;;;;1.00;1.00;;;7.20;99.90;;;;;;4858009;29;20210;-76
2021/04/17 10:03:27;;;;;;;0.90;0.90;;;7.90;99.90;;;;;;4854712;29;20346;-75
2021/04/17 10:05:55;;;;;;;1.00;1.00;;;8.20;99.90;;;;;;4840509;29;20709;-77
2021/04/17 10:08:29;;;;;;;1.00;1.00;;;8.20;99.90;;;;;;4841543;29;20225;-76
2021/04/17 10:10:58;;;;;;;0.97;0.97;;;8.20;99.90;;;;;;4843840;29;20758;-80
2021/04/17 10:15:54;;;;;;;1.00;1.00;;;8.10;99.90;;;;;;4887569;29;20223;-79
2021/04/17 10:18:21;;;;;;;1.00;1.00;;;8.20;99.90;;;;;;4864076;29;20243;-75
2021/04/17 10:20:48;;;;;;;1.00;1.00;;;8.10;99.90;;;;;;4860883;29;20685;-74
2021/04/17 10:23:15;;;;;;;0.90;0.90;;;8.00;99.90;;;;;;4860975;29;20213;-75
2021/04/17 10:25:43;;;;;;;0.80;0.80;;;8.10;99.90;;;;;;4860718;29;20733;-75
2021/04/17 10:28:15;;;;;;;1.00;1.00;;;8.30;99.90;;;;;;4862333;29;20236;-76
2021/04/17 10:30:44;;;;;;;1.00;1.00;;;8.50;99.90;;;;;;4876890;29;20677;-76
2021/04/17 10:33:17;;;;;;;1.00;1.00;;;8.70;99.90;;;;;;4886615;29;20580;-76
2021/04/17 10:35:45;;;;;;;1.00;1.00;;;8.70;99.90;;;;;;4878582;29;20230;-78
2021/04/17 10:38:23;;;;;;;0.90;0.90;;;8.80;99.90;;;;;;4880022;29;20215;-78
2021/04/17 10:40:50;;;;;;;0.90;0.90;;;8.80;99.90;;;;;;4878674;29;20208;-77
2021/04/17 10:43:19;;;;;;;0.80;0.80;;;8.90;99.90;;;;;;4878226;29;20284;-76
2021/04/17 10:45:48;;;;;;;0.70;0.70;;;9.10;99.90;;;;;;4878317;29;20343;-77
2021/04/17 10:48:20;;;;;;;0.90;0.90;;;8.80;99.90;;;;;;4878017;29;20591;-76
2021/04/17 10:50:55;;;;;;;0.80;0.80;;;8.80;99.90;;;;;;4877757;29;20203;-77
2021/04/17 10:53:24;;;;;;;1.02;1.02;;;8.80;99.90;;;;;;4877413;29;20271;-77
2021/04/17 10:55:53;;;;;;;0.90;0.90;;;8.80;99.90;;;;;;4875780;29;20287;-77
2021/04/17 10:58:23;;;;;;;1.10;1.10;;;8.90;99.90;;;;;;4878478;29;20235;-78
2021/04/17 11:00:55;;;;;;;1.00;1.00;;;8.60;99.90;;;;;;4877477;29;20283;-77
2021/04/17 11:03:24;;;;;;;1.05;1.05;;;8.70;99.90;;;;;;4878694;29;20202;-78
2021/04/17 11:05:51;;;;;;;1.00;1.00;;;9.30;99.90;;;;;;4877160;29;20211;-77
2021/04/17 11:08:23;;;;;;;0.90;0.90;;;8.90;99.90;;;;;;4877645;29;20228;-75
2021/04/17 11:10:50;;;;;;;0.90;0.90;;;8.90;99.90;;;;;;4875088;29;20255;-75
2021/04/17 11:13:34;;;;;;;0.90;0.90;;;8.80;99.90;;;;;;4877150;29;20232;-75
2021/04/17 11:16:02;;;;;;;0.80;0.80;;;8.70;99.90;;;;;;4876502;29;20738;-75
2021/04/17 11:18:36;;;;;;;1.00;1.00;;;8.80;99.90;;;;;;4879293;29;20734;-75
2021/04/17 11:21:06;;;;;;;0.90;0.90;;;8.80;99.90;;;;;;4877654;29;20666;-75
2021/04/17 11:23:41;;;;;;;0.90;0.90;;;8.70;99.90;;;;;;4877257;29;20196;-77
2021/04/17 11:26:11;;;;;;;1.00;1.00;;;8.80;99.90;;;;;;4874980;29;20673;-75
2021/04/17 11:28:40;;;;;;;1.00;1.00;;;8.70;99.90;;;;;;4878201;29;20208;-76
2021/04/17 11:31:09;;;;;;;0.82;0.82;;;8.70;99.90;;;;;;4879528;29;20306;-75
2021/04/17 11:33:37;;;;;;;0.90;0.90;;;8.80;99.90;;;;;;4880659;29;20724;-75
2021/04/17 11:36:06;;;;;;;1.10;1.10;;;8.80;99.90;;;;;;4881237;29;20291;-75
2021/04/17 11:38:33;;;;;;;1.00;1.00;;;9.00;99.90;;;;;;4874129;29;20265;-78
2021/04/17 11:40:59;;;;;;;1.00;1.00;;;9.30;99.90;;;;;;4877676;29;20231;-77
2021/04/17 11:43:26;;;;;;;0.80;0.80;;;9.40;99.90;;;;;;4878239;29;20200;-75
2021/04/17 11:45:54;;;;;;;0.90;0.90;;;9.40;99.90;;;;;;4878060;29;20196;-77
2021/04/17 11:48:21;;;;;;;0.73;0.73;;;9.60;99.90;;;;;;4872730;29;20224;-76
2021/04/17 11:50:49;;;;;;;0.90;0.90;;;9.80;99.90;;;;;;4877604;29;20196;-78
2021/04/17 11:53:20;;;;;;;1.05;1.05;;;9.70;99.90;;;;;;4877377;29;20212;-76
2021/04/17 11:55:49;;;;;;;1.00;1.00;;;9.80;99.90;;;;;;4877574;29;20547;-77
2021/04/17 11:58:17;;;;;;;0.80;0.80;;;9.90;99.90;;;;;;4877766;29;20204;-77
2021/04/17 12:00:43;;;;;;;0.90;0.90;;;9.70;99.90;;;;;;4877059;29;20726;-77
2021/04/17 12:03:15;;;;;;;0.80;0.80;;;9.50;99.90;;;;;;4877606;29;20226;-75
2021/04/17 12:05:42;;;;;;;0.90;0.90;;;9.60;99.90;;;;;;4878718;29;20228;-74
2021/04/17 12:08:09;;;;;;;0.95;0.95;;;9.80;99.90;;;;;;4881294;29;20227;-74
2021/04/17 12:10:36;;;;;;;0.80;0.80;;;9.70;99.90;;;;;;4881707;29;20208;-77
2021/04/17 12:13:03;;;;;;;1.00;1.00;;;9.60;99.90;;;;;;4881341;29;20735;-76
2021/04/17 12:15:30;;;;;;;0.80;0.80;;;10.20;99.90;;;;;;4880883;29;20636;-76
2021/04/17 12:17:57;;;;;;;0.88;0.88;;;10.10;99.90;;;;;;4880940;29;20264;-76
2021/04/17 12:20:24;;;;;;;0.93;0.93;;;10.00;99.90;;;;;;4880730;29;20208;-76
2021/04/17 12:22:51;;;;;;;0.98;0.98;;;10.20;99.90;;;;;;4881274;29;20290;-75
2021/04/17 12:25:18;;;;;;;0.80;0.80;;;10.10;99.90;;;;;;4880783;29;20753;-75
2021/04/17 12:27:45;;;;;;;0.90;0.90;;;10.30;99.90;;;;;;4880965;29;20227;-74
2021/04/17 12:30:13;;;;;;;0.60;0.60;;;10.60;99.90;;;;;;4881006;29;20208;-76
2021/04/17 12:32:40;;;;;;;0.70;0.70;;;10.70;99.90;;;;;;4880995;29;20661;-77
2021/04/17 12:35:10;;;;;;;0.80;0.80;;;10.40;99.90;;;;;;4881230;29;20232;-73
2021/04/17 12:37:37;;;;;;;0.80;0.80;;;10.30;99.90;;;;;;4889066;29;20204;-78
2021/04/17 12:40:05;;;;;;;0.80;0.80;;;10.70;99.90;;;;;;4888908;29;20272;-80
2021/04/17 12:42:33;;;;;;;0.80;0.80;;;10.80;99.90;;;;;;4884082;29;20216;-81
2021/04/17 12:45:00;;;;;;;0.73;0.73;;;10.80;99.90;;;;;;4883263;29;20649;-77
2021/04/17 12:47:26;;;;;;;0.90;0.90;;;10.70;99.90;;;;;;4882990;29;20677;-83
2021/04/17 12:49:54;;;;;;;0.70;0.70;;;10.60;99.90;;;;;;4883740;29;20207;-83
2021/04/17 12:52:21;;;;;;;0.80;0.80;;;10.70;99.90;;;;;;4883622;29;20335;-78
2021/04/17 12:54:48;;;;;;;0.90;0.90;;;11.10;99.90;;;;;;4885278;29;20495;-81
2021/04/17 12:57:15;;;;;;;0.80;0.80;;;10.90;99.90;;;;;;4886158;29;20208;-80
2021/04/17 12:59:42;;;;;;;0.90;0.90;;;11.20;99.90;;;;;;4882107;29;20200;-75
2021/04/17 13:02:10;;;;;;;0.75;0.75;;;11.20;99.90;;;;;;4880829;29;20215;-79
2021/04/17 13:04:38;;;;;;;0.80;0.80;;;11.10;99.60;;;;;;4881364;29;20733;-76
2021/04/17 13:07:05;;;;;;;0.85;0.85;;;10.60;99.90;;;;;;4881131;29;20598;-76
2021/04/17 13:09:32;;;;;;;0.90;0.90;;;10.30;99.90;;;;;;4882088;29;20560;-78
2021/04/17 13:11:59;;;;;;;0.90;0.90;;;10.00;99.90;;;;;;4881040;29;20216;-77
2021/04/17 13:14:26;;;;;;;0.80;0.80;;;9.90;99.90;;;;;;4887617;29;20236;-77
2021/04/17 13:16:54;;;;;;;0.85;0.85;;;10.10;99.90;;;;;;4884885;29;20240;-77
2021/04/17 13:19:22;;;;;;;0.80;0.80;;;10.20;99.90;;;;;;4885266;29;20208;-78
2021/04/17 13:21:49;;;;;;;0.90;0.90;;;10.50;99.90;;;;;;4890493;29;20218;-78
2021/04/17 13:24:16;;;;;;;0.80;0.80;;;10.40;99.90;;;;;;4892102;29;20297;-79
2021/04/17 13:26:42;;;;;;;0.90;0.90;;;10.30;99.90;;;;;;4886566;29;20236;-77
2021/04/17 13:29:09;;;;;;;0.80;0.80;;;10.00;99.90;;;;;;4891198;29;20275;-79
2021/04/17 13:31:36;;;;;;;0.90;0.90;;;10.20;99.90;;;;;;4887205;29;20215;-79
2021/04/17 13:34:06;;;;;;;0.80;0.80;;;10.20;99.90;;;;;;4884703;29;20745;-74
2021/04/17 13:36:33;;;;;;;0.90;0.90;;;10.40;99.90;;;;;;4890156;29;20212;-78
2021/04/17 13:39:00;;;;;;;0.80;0.80;;;10.70;99.90;;;;;;4886133;29;20211;-83
2021/04/17 13:41:27;;;;;;;0.70;0.70;;;10.90;99.90;;;;;;4882118;29;20208;-75
2021/04/17 13:43:53;;;;;;;0.88;0.88;;;11.20;99.90;;;;;;4885248;29;20232;-81
2021/04/17 13:46:20;;;;;;;0.75;0.75;;;11.10;99.80;;;;;;4882946;29;20273;-80
2021/04/17 13:48:47;;;;;;;0.90;0.90;;;10.90;99.90;;;;;;4881630;29;20291;-76
2021/04/17 13:51:15;;;;;;;0.70;0.70;;;11.20;99.90;;;;;;4879090;29;20290;-75
2021/04/17 13:53:42;;;;;;;0.80;0.80;;;11.10;99.90;;;;;;4878773;29;20232;-75
2021/04/17 13:56:09;;;;;;;0.70;0.70;;;11.40;99.90;;;;;;4874082;29;20708;-77
2021/04/17 13:58:36;;;;;;;0.75;0.75;;;11.60;99.60;;;;;;4887662;29;20203;-80
2021/04/17 14:01:03;;;;;;;0.70;0.70;;;11.80;98.80;;;;;;4882834;29;20642;-80
2021/04/17 14:03:30;;;;;;;0.73;0.73;;;11.90;98.20;;;;;;4880721;29;20240;-79
2021/04/17 14:05:58;;;;;;;0.73;0.73;;;11.80;97.90;;;;;;4882496;29;20212;-78
2021/04/17 14:08:26;;;;;;;0.70;0.70;;;12.00;99.40;;;;;;4885812;29;20249;-78
2021/04/17 14:10:53;;;;;;;0.60;0.60;;;12.40;99.80;;;;;;4885526;29;20260;-78
2021/04/17 14:13:20;;;;;;;0.70;0.70;;;11.50;98.50;;;;;;4886022;29;20220;-80
2021/04/17 14:15:46;;;;;;;0.70;0.70;;;11.70;98.60;;;;;;4885518;29;20354;-78
2021/04/17 14:18:13;;;;;;;0.82;0.82;;;11.20;98.00;;;;;;4885616;29;20204;-78
2021/04/17 14:20:56;;;;;;;0.77;0.77;;;11.50;98.70;;;;;;4885163;29;20210;-79
2021/04/17 14:23:23;;;;;;;0.80;0.80;;;11.40;99.90;;;;;;4884600;29;20211;-79
2021/04/17 14:25:51;;;;;;;0.70;0.70;;;11.30;98.10;;;;;;4884377;29;20569;-79
2021/04/17 14:28:18;;;;;;;0.70;0.70;;;11.20;98.60;;;;;;4883781;29;20270;-78
2021/04/17 14:30:45;;;;;;;0.70;0.70;;;11.30;97.00;;;;;;4884687;29;20688;-79
2021/04/17 14:33:12;;;;;;;0.50;0.50;;;11.40;97.40;;;;;;4884597;29;20212;-79
2021/04/17 14:35:39;;;;;;;0.65;0.65;;;11.50;97.90;;;;;;4884149;29;20247;-78
2021/04/17 14:38:06;;;;;;;0.80;0.80;;;11.60;97.50;;;;;;4883534;29;20674;-77
2021/04/17 14:40:33;;;;;;;0.70;0.70;;;11.40;96.70;;;;;;4878948;29;20224;-76
2021/04/17 14:43:00;;;;;;;0.80;0.80;;;11.40;97.10;;;;;;4879078;29;20243;-76
2021/04/17 14:45:27;;;;;;;0.75;0.75;;;11.20;97.70;;;;;;4878961;29;20280;-76
2021/04/17 14:47:54;;;;;;;0.80;0.80;;;11.50;97.10;;;;;;4878814;29;20252;-76
2021/04/17 14:50:21;;;;;;;0.80;0.80;;;11.50;96.70;;;;;;4878348;29;20200;-76
2021/04/17 14:53:08;;;;;;;0.70;0.70;;;11.50;96.80;;;;;;4879154;29;20584;-76
2021/04/17 14:55:55;;;;;;;0.80;0.80;;;11.40;96.70;;;;;;4878897;29;20203;-75
2021/04/17 14:58:23;;;;;;;0.60;0.60;;;11.40;97.00;;;;;;4878352;29;20208;-75
2021/04/17 15:00:49;;;;;;;0.80;0.80;;;11.30;97.30;;;;;;4878635;29;20749;-75
2021/04/17 15:03:17;;;;;;;0.90;0.90;;;11.10;99.90;;;;;;4878931;29;20234;-75
2021/04/17 15:05:48;;;;;;;0.60;0.60;;;11.20;97.20;;;;;;4878841;29;20276;-75
2021/04/17 15:08:14;;;;;;;0.85;0.85;;;11.10;97.40;;;;;;4878574;29;20227;-75
2021/04/17 15:10:42;;;;;;;0.75;0.75;;;10.90;97.80;;;;;;4878687;29;20215;-76
2021/04/17 15:13:09;;;;;;;0.75;0.75;;;11.00;97.90;;;;;;4878518;29;20272;-76
2021/04/17 15:15:37;;;;;;;0.70;0.70;;;10.60;98.30;;;;;;4877711;29;20235;-76
2021/04/17 15:18:05;;;;;;;0.85;0.85;;;10.80;98.40;;;;;;4878796;29;20208;-76
2021/04/17 15:20:33;;;;;;;0.70;0.70;;;10.60;99.50;;;;;;4878508;29;20268;-76
2021/04/17 15:23:14;;;;;;;0.70;0.70;;;10.50;99.10;;;;;;4878705;29;20215;-76
2021/04/17 15:25:42;;;;;;;0.77;0.77;;;10.60;99.00;;;;;;4878073;29;20238;-75
2021/04/17 15:28:09;;;;;;;0.90;0.90;;;10.40;99.60;;;;;;4878501;29;20242;-79
2021/04/17 15:30:38;;;;;;;0.85;0.85;;;9.10;99.90;;;;;;4880664;29;20212;-76
2021/04/17 15:33:05;;;;;;;0.90;0.90;;;10.30;99.90;;;;;;4878112;29;20678;-76
2021/04/17 15:35:33;;;;;;;0.90;0.90;;;10.40;99.90;;;;;;4877822;29;20228;-76
2021/04/17 15:38:02;;;;;;;0.77;0.77;;;10.30;99.90;;;;;;4878042;29;20291;-76
2021/04/17 15:40:30;;;;;;;0.85;0.85;;;10.10;99.90;;;;;;4877860;29;20219;-76
2021/04/17 15:42:57;;;;;;;0.80;0.80;;;10.30;99.90;;;;;;4878186;29;20211;-76
2021/04/17 15:45:24;;;;;;;1.00;1.00;;;10.40;99.90;;;;;;4878257;29;20280;-75
2021/04/17 15:47:51;;;;;;;0.90;0.90;;;10.20;99.90;;;;;;4878041;29;20725;-76
2021/04/17 15:50:19;;;;;;;0.70;0.70;;;10.80;99.90;;;;;;4877929;29;20211;-76
2021/04/17 15:52:46;;;;;;;0.70;0.70;;;10.40;99.90;;;;;;4877939;29;20653;-76
2021/04/17 15:55:13;;;;;;;0.77;0.77;;;10.50;99.90;;;;;;4877624;29;20284;-76
2021/04/17 15:57:48;;;;;;;0.90;0.90;;;10.20;99.90;;;;;;4878193;29;20204;-75
2021/04/17 16:14:19;;;;;;;0.80;0.80;;;10.60;99.90;;;;;;4871164;29;20272;-73
2021/04/17 16:16:47;;;;;;;0.68;0.68;;;10.60;99.90;;;;;;4880889;29;20203;-73
2021/04/17 16:19:15;;;;;;;0.90;0.90;;;10.70;99.90;;;;;;4878803;29;20689;-72
2021/04/17 16:21:42;;;;;;;0.82;0.82;;;10.70;99.90;;;;;;4878084;29;20662;-73
2021/04/17 16:24:10;;;;;;;0.70;0.70;;;10.70;99.90;;;;;;4881477;29;20630;-81
2021/04/17 16:26:38;;;;;;;0.70;0.70;;;10.70;99.90;;;;;;4881584;29;20666;-78
2021/04/17 16:29:07;;;;;;;0.80;0.80;;;10.80;99.90;;;;;;4882492;29;20311;-79
2021/04/17 16:31:35;;;;;;;0.80;0.80;;;10.70;99.90;;;;;;4880344;29;20260;-73
2021/04/17 16:34:03;;;;;;;0.80;0.80;;;10.70;99.90;;;;;;4878323;29;20232;-72
2021/04/17 16:36:34;;;;;;;0.70;0.70;;;10.80;99.90;;;;;;4883751;29;20230;-79
2021/04/17 16:39:03;;;;;;;0.60;0.60;;;10.80;99.80;;;;;;4878683;29;20615;-74
2021/04/17 16:41:30;;;;;;;0.77;0.77;;;10.90;99.40;;;;;;4877796;29;20208;-73
2021/04/17 16:43:56;;;;;;;0.90;0.90;;;10.90;99.50;;;;;;4877845;29;20284;-74
2021/04/17 16:46:23;;;;;;;0.70;0.70;;;10.80;99.80;;;;;;4877541;29;20243;-75
2021/04/17 16:48:50;;;;;;;0.60;0.60;;;10.90;99.90;;;;;;4877559;29;20228;-74
2021/04/17 16:51:19;;;;;;;0.73;0.73;;;10.90;99.90;;;;;;4878261;29;20231;-76
2021/04/17 16:53:47;;;;;;;0.80;0.80;;;10.70;99.90;;;;;;4881075;29;20224;-76
2021/04/17 16:56:14;;;;;;;0.90;0.90;;;10.80;99.90;;;;;;4881276;29;20236;-77
2021/04/17 16:58:41;;;;;;;0.80;0.80;;;10.60;99.80;;;;;;4882397;29;20200;-74
2021/04/17 17:01:09;;;;;;;0.90;0.90;;;10.70;99.90;;;;;;4882227;29;20260;-75
2021/04/17 17:03:37;;;;;;;0.80;0.80;;;10.60;99.90;;;;;;4881702;29;20216;-74
2021/04/17 17:06:05;;;;;;;0.80;0.80;;;10.50;99.90;;;;;;4862358;29;20189;-75
2021/04/17 17:08:32;;;;;;;0.80;0.80;;;10.50;99.90;;;;;;4863918;29;20268;-75
2021/04/17 17:10:59;;;;;;;0.80;0.80;;;10.50;99.90;;;;;;4877393;29;20888;-75
2021/04/17 17:13:26;;;;;;;0.80;0.80;;;10.60;99.90;;;;;;4880619;29;20703;-76
2021/04/17 17:15:53;;;;;;;0.70;0.70;;;10.50;99.90;;;;;;4880411;29;20252;-75
2021/04/17 17:18:20;;;;;;;0.70;0.70;;;10.60;99.90;;;;;;4880399;29;20223;-77
2021/04/17 17:20:47;;;;;;;0.90;0.90;;;10.30;99.90;;;;;;4879875;29;20200;-75
2021/04/17 17:23:14;;;;;;;0.70;0.70;;;10.10;99.90;;;;;;4877623;29;20231;-75
2021/04/17 17:25:43;;;;;;;0.82;0.82;;;10.30;99.90;;;;;;4879969;29;20224;-75
2021/04/17 17:28:11;;;;;;;0.80;0.80;;;10.40;99.90;;;;;;4880082;29;20272;-75
2021/04/17 17:30:38;;;;;;;0.80;0.80;;;10.50;99.90;;;;;;4880100;29;20200;-75
2021/04/17 17:33:06;;;;;;;0.70;0.70;;;10.40;99.90;;;;;;4880474;29;20212;-75